sensor_id;sensor_type;location;lat;lon;timestamp;pressure;altitude;pressure_sealevel;temperature;humidity
75051;BME280;63628;47.656;11.310;2023-11-21T00:02:21;94325.69;;;9.66;73.95
75051;BME280;63628;47.656;11.310;2023-11-21T00:04:48;94318.25;;;9.63;74.34
75051;BME280;63628;47.656;11.310;2023-11-21T00:07:15;94317.69;;;9.61;74.46
75051;BME280;63628;47.656;11.310;2023-11-21T00:09:42;94323.22;;;9.60;74.43
75051;BME280;63628;47.656;11.310;2023-11-21T00:12:09;94325.69;;;9.66;73.81
75051;BME280;63628;47.656;11.310;2023-11-21T00:14:36;94324.00;;;7.75;76.81
75051;BME280;63628;47.656;11.310;2023-11-21T00:17:04;94325.78;;;9.26;75.07
75051;BME280;63628;47.656;11.310;2023-11-21T00:19:32;94319.25;;;9.45;74.96
75051;BME280;63628;47.656;11.310;2023-11-21T00:21:59;94319.44;;;9.56;73.73
75051;BME280;63628;47.656;11.310;2023-11-21T00:24:26;94317.06;;;8.74;75.75
75051;BME280;63628;47.656;11.310;2023-11-21T00:26:52;94315.88;;;9.33;75.70
75051;BME280;63628;47.656;11.310;2023-11-21T00:29:19;94310.66;;;9.21;70.39
75051;BME280;63628;47.656;11.310;2023-11-21T00:31:46;94317.41;;;9.46;74.73
75051;BME280;63628;47.656;11.310;2023-11-21T00:34:14;94316.00;;;9.55;74.51
75051;BME280;63628;47.656;11.310;2023-11-21T00:36:41;94313.47;;;9.32;71.28
75051;BME280;63628;47.656;11.310;2023-11-21T00:39:08;94318.22;;;9.46;73.72
75051;BME280;63628;47.656;11.310;2023-11-21T00:41:35;94315.25;;;9.43;75.40
75051;BME280;63628;47.656;11.310;2023-11-21T00:44:03;94315.50;;;9.41;74.78
75051;BME280;63628;47.656;11.310;2023-11-21T00:46:31;94304.47;;;9.44;74.90
75051;BME280;63628;47.656;11.310;2023-11-21T00:48:58;94306.28;;;9.44;74.52
75051;BME280;63628;47.656;11.310;2023-11-21T00:51:26;94310.00;;;9.03;72.34
75051;BME280;63628;47.656;11.310;2023-11-21T00:53:53;94308.59;;;9.40;73.78
75051;BME280;63628;47.656;11.310;2023-11-21T00:56:20;94312.94;;;9.46;74.27
75051;BME280;63628;47.656;11.310;2023-11-21T00:58:47;94305.81;;;9.47;74.16
75051;BME280;63628;47.656;11.310;2023-11-21T01:01:16;94313.59;;;9.53;73.89
75051;BME280;63628;47.656;11.310;2023-11-21T01:03:44;94306.22;;;9.39;74.06
75051;BME280;63628;47.656;11.310;2023-11-21T01:06:12;94310.06;;;9.48;73.49
75051;BME280;63628;47.656;11.310;2023-11-21T01:08:44;94308.03;;;9.38;74.39
75051;BME280;63628;47.656;11.310;2023-11-21T01:11:11;94307.16;;;9.33;74.27
75051;BME280;63628;47.656;11.310;2023-11-21T01:13:39;94298.44;;;9.32;75.09
75051;BME280;63628;47.656;11.310;2023-11-21T01:16:07;94297.53;;;9.27;74.62
75051;BME280;63628;47.656;11.310;2023-11-21T01:18:34;94298.44;;;9.32;74.06
75051;BME280;63628;47.656;11.310;2023-11-21T01:21:01;94293.72;;;9.34;74.61
75051;BME280;63628;47.656;11.310;2023-11-21T01:23:28;94297.97;;;9.35;74.12
75051;BME280;63628;47.656;11.310;2023-11-21T01:25:56;94292.06;;;9.45;73.56
75051;BME280;63628;47.656;11.310;2023-11-21T01:28:23;94289.66;;;9.15;74.32
75051;BME280;63628;47.656;11.310;2023-11-21T01:30:50;94301.41;;;9.36;73.40
75051;BME280;63628;47.656;11.310;2023-11-21T01:33:17;94303.56;;;9.39;74.12
75051;BME280;63628;47.656;11.310;2023-11-21T01:35:45;94297.25;;;9.11;74.58
75051;BME280;63628;47.656;11.310;2023-11-21T01:38:12;94302.00;;;9.26;74.17
75051;BME280;63628;47.656;11.310;2023-11-21T01:40:40;94305.06;;;9.35;73.94
75051;BME280;63628;47.656;11.310;2023-11-21T01:43:08;94303.53;;;9.22;74.38
75051;BME280;63628;47.656;11.310;2023-11-21T01:45:35;94302.16;;;9.19;74.79
75051;BME280;63628;47.656;11.310;2023-11-21T01:48:02;94292.06;;;9.16;74.50
75051;BME280;63628;47.656;11.310;2023-11-21T01:50:30;94298.38;;;9.15;74.76
75051;BME280;63628;47.656;11.310;2023-11-21T01:52:57;94304.00;;;9.19;74.39
75051;BME280;63628;47.656;11.310;2023-11-21T01:55:24;94299.66;;;7.91;69.39
75051;BME280;63628;47.656;11.310;2023-11-21T01:57:55;94307.69;;;7.54;79.58
75051;BME280;63628;47.656;11.310;2023-11-21T02:00:24;94301.69;;;8.82;75.87
75051;BME280;63628;47.656;11.310;2023-11-21T02:02:51;94304.25;;;9.06;75.03
75051;BME280;63628;47.656;11.310;2023-11-21T02:05:18;94302.88;;;9.15;74.48
75051;BME280;63628;47.656;11.310;2023-11-21T02:07:46;94303.66;;;9.15;74.05
75051;BME280;63628;47.656;11.310;2023-11-21T02:10:16;94305.75;;;9.13;74.57
75051;BME280;63628;47.656;11.310;2023-11-21T02:12:44;94298.84;;;9.12;74.07
75051;BME280;63628;47.656;11.310;2023-11-21T02:15:12;94294.59;;;8.71;68.52
75051;BME280;63628;47.656;11.310;2023-11-21T02:17:44;94294.84;;;8.70;75.77
75051;BME280;63628;47.656;11.310;2023-11-21T02:20:11;94290.84;;;8.96;74.68
75051;BME280;63628;47.656;11.310;2023-11-21T02:22:42;94290.94;;;9.01;75.03
75051;BME280;63628;47.656;11.310;2023-11-21T02:25:10;94300.81;;;9.05;75.19
75051;BME280;63628;47.656;11.310;2023-11-21T02:27:38;94292.16;;;8.81;70.42
75051;BME280;63628;47.656;11.310;2023-11-21T02:30:05;94292.88;;;8.30;70.51
75051;BME280;63628;47.656;11.310;2023-11-21T02:32:34;94290.53;;;8.92;74.45
75051;BME280;63628;47.656;11.310;2023-11-21T02:35:14;94284.88;;;9.00;74.85
75051;BME280;63628;47.656;11.310;2023-11-21T02:37:40;94283.84;;;9.01;74.87
75051;BME280;63628;47.656;11.310;2023-11-21T02:40:09;94282.94;;;8.96;74.56
75051;BME280;63628;47.656;11.310;2023-11-21T02:42:37;94283.75;;;8.96;75.10
75051;BME280;63628;47.656;11.310;2023-11-21T02:45:05;94272.38;;;8.96;75.00
75051;BME280;63628;47.656;11.310;2023-11-21T02:47:32;94274.66;;;9.04;74.46
75051;BME280;63628;47.656;11.310;2023-11-21T02:50:00;94275.53;;;9.09;73.65
75051;BME280;63628;47.656;11.310;2023-11-21T02:52:27;94273.84;;;9.03;71.53
75051;BME280;63628;47.656;11.310;2023-11-21T02:54:53;94274.56;;;8.23;74.76
75051;BME280;63628;47.656;11.310;2023-11-21T02:57:20;94272.28;;;8.39;75.81
75051;BME280;63628;47.656;11.310;2023-11-21T02:59:48;94272.19;;;8.85;74.96
75051;BME280;63628;47.656;11.310;2023-11-21T03:02:15;94288.47;;;6.02;75.93
75051;BME280;63628;47.656;11.310;2023-11-21T03:04:42;94294.91;;;5.25;81.10
75051;BME280;63628;47.656;11.310;2023-11-21T03:07:09;94293.00;;;6.14;84.21
75051;BME280;63628;47.656;11.310;2023-11-21T03:09:36;94292.66;;;8.20;78.18
75051;BME280;63628;47.656;11.310;2023-11-21T03:12:03;94285.09;;;8.58;76.56
75051;BME280;63628;47.656;11.310;2023-11-21T03:14:30;94285.53;;;8.67;75.99
75051;BME280;63628;47.656;11.310;2023-11-21T03:16:58;94277.97;;;8.71;76.29
75051;BME280;63628;47.656;11.310;2023-11-21T03:19:25;94282.44;;;8.70;75.79
75051;BME280;63628;47.656;11.310;2023-11-21T03:21:51;94275.34;;;8.71;74.98
75051;BME280;63628;47.656;11.310;2023-11-21T03:24:19;94283.34;;;8.76;74.76
75051;BME280;63628;47.656;11.310;2023-11-21T03:26:46;94277.50;;;8.74;74.70
75051;BME280;63628;47.656;11.310;2023-11-21T03:29:13;94274.28;;;8.72;75.19
75051;BME280;63628;47.656;11.310;2023-11-21T03:31:40;94276.13;;;8.71;75.13
75051;BME280;63628;47.656;11.310;2023-11-21T03:34:22;94265.69;;;8.76;75.12
75051;BME280;63628;47.656;11.310;2023-11-21T03:36:49;94270.16;;;8.76;75.00
75051;BME280;63628;47.656;11.310;2023-11-21T03:39:16;94268.56;;;8.75;74.76
75051;BME280;63628;47.656;11.310;2023-11-21T03:41:42;94264.88;;;8.76;74.62
75051;BME280;63628;47.656;11.310;2023-11-21T03:44:09;94262.56;;;8.79;74.82
75051;BME280;63628;47.656;11.310;2023-11-21T03:46:37;94263.03;;;8.76;74.77
75051;BME280;63628;47.656;11.310;2023-11-21T03:49:03;94250.88;;;8.75;74.63
75051;BME280;63628;47.656;11.310;2023-11-21T03:51:31;94256.16;;;8.75;74.58
75051;BME280;63628;47.656;11.310;2023-11-21T03:53:58;94265.28;;;7.32;75.59
75051;BME280;63628;47.656;11.310;2023-11-21T03:56:24;94273.84;;;6.31;79.62
75051;BME280;63628;47.656;11.310;2023-11-21T03:58:51;94273.47;;;7.54;80.30
75051;BME280;63628;47.656;11.310;2023-11-21T04:01:21;94275.47;;;8.41;76.70
75051;BME280;63628;47.656;11.310;2023-11-21T04:03:48;94276.06;;;8.54;75.66
75051;BME280;63628;47.656;11.310;2023-11-21T04:06:15;94270.66;;;8.61;75.11
75051;BME280;63628;47.656;11.310;2023-11-21T04:08:45;94266.97;;;8.62;75.72
75051;BME280;63628;47.656;11.310;2023-11-21T04:11:13;94272.72;;;8.59;75.34
75051;BME280;63628;47.656;11.310;2023-11-21T04:13:40;94268.00;;;8.61;74.84
75051;BME280;63628;47.656;11.310;2023-11-21T04:16:09;94273.06;;;8.63;75.49
75051;BME280;63628;47.656;11.310;2023-11-21T04:18:36;94272.59;;;8.66;74.94
75051;BME280;63628;47.656;11.310;2023-11-21T04:21:04;94275.34;;;8.59;75.08
75051;BME280;63628;47.656;11.310;2023-11-21T04:23:31;94278.00;;;8.59;75.88
75051;BME280;63628;47.656;11.310;2023-11-21T04:25:59;94283.59;;;8.63;75.60
75051;BME280;63628;47.656;11.310;2023-11-21T04:28:26;94277.88;;;8.66;75.16
75051;BME280;63628;47.656;11.310;2023-11-21T04:30:53;94280.41;;;8.61;75.18
75051;BME280;63628;47.656;11.310;2023-11-21T04:33:20;94288.09;;;8.62;75.70
75051;BME280;63628;47.656;11.310;2023-11-21T04:35:48;94280.63;;;8.59;75.56
75051;BME280;63628;47.656;11.310;2023-11-21T04:38:14;94284.88;;;8.60;75.43
75051;BME280;63628;47.656;11.310;2023-11-21T04:40:41;94287.75;;;8.58;75.67
75051;BME280;63628;47.656;11.310;2023-11-21T04:43:09;94286.47;;;8.61;75.35
75051;BME280;63628;47.656;11.310;2023-11-21T04:45:36;94289.56;;;8.58;75.19
75051;BME280;63628;47.656;11.310;2023-11-21T04:48:03;94297.16;;;8.54;75.43
75051;BME280;63628;47.656;11.310;2023-11-21T04:50:30;94307.47;;;8.56;75.22
75051;BME280;63628;47.656;11.310;2023-11-21T04:52:57;94309.28;;;8.09;74.10
75051;BME280;63628;47.656;11.310;2023-11-21T04:55:24;94300.47;;;6.35;79.45
75051;BME280;63628;47.656;11.310;2023-11-21T04:57:54;94302.84;;;8.05;78.20
75051;BME280;63628;47.656;11.310;2023-11-21T05:00:22;94302.31;;;8.38;76.31
75051;BME280;63628;47.656;11.310;2023-11-21T05:02:49;94295.91;;;8.45;75.65
75051;BME280;63628;47.656;11.310;2023-11-21T05:05:16;94293.16;;;8.52;75.41
75051;BME280;63628;47.656;11.310;2023-11-21T05:07:44;94304.97;;;8.49;75.58
75051;BME280;63628;47.656;11.310;2023-11-21T05:10:11;94303.56;;;8.35;76.62
75051;BME280;63628;47.656;11.310;2023-11-21T05:12:40;94299.91;;;8.48;75.80
75051;BME280;63628;47.656;11.310;2023-11-21T05:15:07;94306.78;;;8.49;75.70
75051;BME280;63628;47.656;11.310;2023-11-21T05:17:39;94306.09;;;8.53;74.63
75051;BME280;63628;47.656;11.310;2023-11-21T05:20:10;94305.41;;;8.46;75.68
75051;BME280;63628;47.656;11.310;2023-11-21T05:22:37;94306.00;;;8.48;76.06
75051;BME280;63628;47.656;11.310;2023-11-21T05:25:05;94311.25;;;8.48;75.74
75051;BME280;63628;47.656;11.310;2023-11-21T05:27:33;94310.22;;;8.49;76.20
75051;BME280;63628;47.656;11.310;2023-11-21T05:30:01;94312.19;;;8.54;74.76
75051;BME280;63628;47.656;11.310;2023-11-21T05:32:28;94309.88;;;8.57;75.16
75051;BME280;63628;47.656;11.310;2023-11-21T05:34:56;94311.50;;;8.47;76.11
75051;BME280;63628;47.656;11.310;2023-11-21T05:37:22;94316.53;;;8.48;75.31
75051;BME280;63628;47.656;11.310;2023-11-21T05:39:49;94312.16;;;8.42;75.33
75051;BME280;63628;47.656;11.310;2023-11-21T05:42:16;94323.41;;;8.49;75.58
75051;BME280;63628;47.656;11.310;2023-11-21T05:44:43;94319.63;;;8.57;74.91
75051;BME280;63628;47.656;11.310;2023-11-21T05:47:10;94323.88;;;8.46;75.62
75051;BME280;63628;47.656;11.310;2023-11-21T05:49:37;94322.03;;;8.47;75.90
75051;BME280;63628;47.656;11.310;2023-11-21T05:52:05;94328.81;;;8.54;75.17
75051;BME280;63628;47.656;11.310;2023-11-21T05:54:32;94323.41;;;8.49;75.66
75051;BME280;63628;47.656;11.310;2023-11-21T05:56:59;94322.47;;;8.44;75.25
75051;BME280;63628;47.656;11.310;2023-11-21T05:59:26;94335.22;;;8.47;75.61
75051;BME280;63628;47.656;11.310;2023-11-21T06:01:52;94332.22;;;8.43;76.18
75051;BME280;63628;47.656;11.310;2023-11-21T06:04:20;94326.28;;;8.48;75.17
75051;BME280;63628;47.656;11.310;2023-11-21T06:06:51;94329.16;;;8.46;74.99
75051;BME280;63628;47.656;11.310;2023-11-21T06:09:19;94337.75;;;8.53;75.87
75051;BME280;63628;47.656;11.310;2023-11-21T06:11:47;94335.22;;;8.47;75.22
75051;BME280;63628;47.656;11.310;2023-11-21T06:14:13;94336.25;;;8.46;75.46
75051;BME280;63628;47.656;11.310;2023-11-21T06:16:44;94336.47;;;8.44;75.71
75051;BME280;63628;47.656;11.310;2023-11-21T06:19:12;94335.81;;;8.49;75.54
75051;BME280;63628;47.656;11.310;2023-11-21T06:21:39;94346.19;;;8.44;76.06
75051;BME280;63628;47.656;11.310;2023-11-21T06:24:05;94347.00;;;8.44;75.82
75051;BME280;63628;47.656;11.310;2023-11-21T06:26:34;94347.63;;;8.46;75.97
75051;BME280;63628;47.656;11.310;2023-11-21T06:29:01;94338.22;;;8.50;75.33
75051;BME280;63628;47.656;11.310;2023-11-21T06:31:29;94349.88;;;8.43;75.86
75051;BME280;63628;47.656;11.310;2023-11-21T06:33:56;94341.38;;;8.41;76.23
75051;BME280;63628;47.656;11.310;2023-11-21T06:36:24;94346.66;;;8.41;75.74
75051;BME280;63628;47.656;11.310;2023-11-21T06:38:51;94356.41;;;8.40;76.41
75051;BME280;63628;47.656;11.310;2023-11-21T06:41:17;94352.28;;;8.44;75.32
75051;BME280;63628;47.656;11.310;2023-11-21T06:43:45;94360.31;;;8.38;76.13
75051;BME280;63628;47.656;11.310;2023-11-21T06:46:13;94350.91;;;8.42;75.78
75051;BME280;63628;47.656;11.310;2023-11-21T06:48:42;94356.63;;;8.39;75.41
75051;BME280;63628;47.656;11.310;2023-11-21T06:51:08;94355.84;;;8.38;76.27
75051;BME280;63628;47.656;11.310;2023-11-21T06:53:36;94361.69;;;8.40;76.33
75051;BME280;63628;47.656;11.310;2023-11-21T06:56:14;94355.03;;;8.38;76.06
75051;BME280;63628;47.656;11.310;2023-11-21T06:58:41;94357.09;;;8.36;76.62
75051;BME280;63628;47.656;11.310;2023-11-21T07:01:10;94363.19;;;8.36;76.24
75051;BME280;63628;47.656;11.310;2023-11-21T07:03:36;94360.53;;;8.36;76.45
75051;BME280;63628;47.656;11.310;2023-11-21T07:06:04;94368.44;;;8.36;75.89
75051;BME280;63628;47.656;11.310;2023-11-21T07:08:31;94363.97;;;8.37;75.78
75051;BME280;63628;47.656;11.310;2023-11-21T07:10:57;94366.38;;;8.38;76.44
75051;BME280;63628;47.656;11.310;2023-11-21T07:13:24;94369.75;;;8.45;76.01
75051;BME280;63628;47.656;11.310;2023-11-21T07:15:52;94363.19;;;8.48;75.72
75051;BME280;63628;47.656;11.310;2023-11-21T07:18:20;94366.63;;;8.37;76.27
75051;BME280;63628;47.656;11.310;2023-11-21T07:20:47;94374.75;;;8.35;75.54
75051;BME280;63628;47.656;11.310;2023-11-21T07:23:13;94369.72;;;8.34;75.76
75051;BME280;63628;47.656;11.310;2023-11-21T07:25:42;94369.72;;;8.34;76.13
75051;BME280;63628;47.656;11.310;2023-11-21T07:28:10;94372.13;;;8.35;76.56
75051;BME280;63628;47.656;11.310;2023-11-21T07:30:36;94371.31;;;8.35;75.49
75051;BME280;63628;47.656;11.310;2023-11-21T07:33:04;94372.13;;;8.35;75.59
75051;BME280;63628;47.656;11.310;2023-11-21T07:35:32;94370.50;;;8.34;76.18
75051;BME280;63628;47.656;11.310;2023-11-21T07:37:59;94371.31;;;8.35;75.96
75051;BME280;63628;47.656;11.310;2023-11-21T07:40:25;94374.41;;;8.43;76.02
75051;BME280;63628;47.656;11.310;2023-11-21T07:42:54;94380.59;;;8.37;75.95
75051;BME280;63628;47.656;11.310;2023-11-21T07:45:23;94376.81;;;8.33;76.04
75051;BME280;63628;47.656;11.310;2023-11-21T07:47:50;94377.16;;;8.37;76.15
75051;BME280;63628;47.656;11.310;2023-11-21T07:50:17;94366.47;;;8.32;74.11
75051;BME280;63628;47.656;11.310;2023-11-21T07:52:45;94379.56;;;8.38;75.23
75051;BME280;63628;47.656;11.310;2023-11-21T07:55:12;94383.00;;;8.39;75.81
75051;BME280;63628;47.656;11.310;2023-11-21T07:57:40;94379.00;;;8.36;75.66
75051;BME280;63628;47.656;11.310;2023-11-21T08:00:08;94377.66;;;8.45;74.79
75051;BME280;63628;47.656;11.310;2023-11-21T08:02:36;94379.44;;;8.45;75.08
75051;BME280;63628;47.656;11.310;2023-11-21T08:05:03;94384.28;;;8.48;74.62
75051;BME280;63628;47.656;11.310;2023-11-21T08:07:30;94382.81;;;8.52;75.10
75051;BME280;63628;47.656;11.310;2023-11-21T08:09:59;94385.19;;;8.42;78.39
75051;BME280;63628;47.656;11.310;2023-11-21T08:12:25;94392.69;;;8.15;80.35
75051;BME280;63628;47.656;11.310;2023-11-21T08:14:54;94390.81;;;7.92;81.51
75051;BME280;63628;47.656;11.310;2023-11-21T08:17:21;94389.88;;;7.56;83.55
75051;BME280;63628;47.656;11.310;2023-11-21T08:19:48;94398.69;;;7.80;84.37
75051;BME280;63628;47.656;11.310;2023-11-21T08:22:16;94392.44;;;8.05;78.84
75051;BME280;63628;47.656;11.310;2023-11-21T08:24:44;94399.81;;;8.26;77.18
75051;BME280;63628;47.656;11.310;2023-11-21T08:27:12;94395.25;;;8.33;77.27
75051;BME280;63628;47.656;11.310;2023-11-21T08:29:42;94402.16;;;8.34;76.69
75051;BME280;63628;47.656;11.310;2023-11-21T08:32:09;94399.16;;;8.42;75.60
75051;BME280;63628;47.656;11.310;2023-11-21T08:34:36;94400.34;;;8.46;77.60
75051;BME280;63628;47.656;11.310;2023-11-21T08:37:03;94398.47;;;8.35;77.60
75051;BME280;63628;47.656;11.310;2023-11-21T08:39:29;94398.81;;;8.39;76.23
75051;BME280;63628;47.656;11.310;2023-11-21T08:41:57;94404.00;;;8.45;76.14
75051;BME280;63628;47.656;11.310;2023-11-21T08:44:25;94404.56;;;8.36;78.91
75051;BME280;63628;47.656;11.310;2023-11-21T08:46:51;94407.72;;;8.14;80.63
75051;BME280;63628;47.656;11.310;2023-11-21T08:49:18;94413.22;;;8.24;77.03
75051;BME280;63628;47.656;11.310;2023-11-21T08:51:45;94414.06;;;8.37;76.37
75051;BME280;63628;47.656;11.310;2023-11-21T08:54:12;94415.00;;;8.42;76.05
75051;BME280;63628;47.656;11.310;2023-11-21T08:56:38;94406.50;;;8.40;76.36
75051;BME280;63628;47.656;11.310;2023-11-21T08:59:05;94413.50;;;8.35;75.97
75051;BME280;63628;47.656;11.310;2023-11-21T09:01:33;94410.97;;;8.40;75.91
75051;BME280;63628;47.656;11.310;2023-11-21T09:04:00;94416.81;;;8.42;76.26
75051;BME280;63628;47.656;11.310;2023-11-21T09:06:27;94415.13;;;8.47;75.33
75051;BME280;63628;47.656;11.310;2023-11-21T09:08:53;94426.34;;;8.43;77.14
75051;BME280;63628;47.656;11.310;2023-11-21T09:11:20;94424.56;;;8.25;76.54
75051;BME280;63628;47.656;11.310;2023-11-21T09:13:47;94426.13;;;7.43;79.61
75051;BME280;63628;47.656;11.310;2023-11-21T09:16:14;94437.41;;;7.61;80.34
75051;BME280;63628;47.656;11.310;2023-11-21T09:18:43;94442.94;;;7.90;77.69
75051;BME280;63628;47.656;11.310;2023-11-21T09:21:10;94444.72;;;8.19;77.71
75051;BME280;63628;47.656;11.310;2023-11-21T09:23:36;94443.38;;;8.28;75.85
75051;BME280;63628;47.656;11.310;2023-11-21T09:26:03;94448.28;;;8.13;77.41
75051;BME280;63628;47.656;11.310;2023-11-21T09:28:31;94455.63;;;8.23;77.15
75051;BME280;63628;47.656;11.310;2023-11-21T09:30:58;94451.84;;;7.59;77.15
75051;BME280;63628;47.656;11.310;2023-11-21T09:33:25;94455.91;;;8.03;78.28
75051;BME280;63628;47.656;11.310;2023-11-21T09:35:53;94455.69;;;8.05;77.51
75051;BME280;63628;47.656;11.310;2023-11-21T09:38:20;94456.69;;;7.92;76.42
75051;BME280;63628;47.656;11.310;2023-11-21T09:40:49;94454.59;;;7.64;78.60
75051;BME280;63628;47.656;11.310;2023-11-21T09:43:17;94450.50;;;7.20;79.39
75051;BME280;63628;47.656;11.310;2023-11-21T09:45:45;94455.81;;;7.50;79.42
75051;BME280;63628;47.656;11.310;2023-11-21T09:48:14;94448.00;;;7.73;77.87
75051;BME280;63628;47.656;11.310;2023-11-21T09:50:42;94452.34;;;7.13;82.54
75051;BME280;63628;47.656;11.310;2023-11-21T09:53:13;94443.00;;;8.13;78.10
75051;BME280;63628;47.656;11.310;2023-11-21T09:55:42;94436.47;;;8.16;77.24
75051;BME280;63628;47.656;11.310;2023-11-21T09:58:10;94444.78;;;7.71;78.97
75051;BME280;63628;47.656;11.310;2023-11-21T10:00:41;94435.38;;;7.93;79.04
75051;BME280;63628;47.656;11.310;2023-11-21T10:03:08;94430.41;;;8.27;78.15
75051;BME280;63628;47.656;11.310;2023-11-21T10:05:36;94426.03;;;8.09;76.98
75051;BME280;63628;47.656;11.310;2023-11-21T10:08:04;94421.94;;;8.25;77.29
75051;BME280;63628;47.656;11.310;2023-11-21T10:10:35;94438.78;;;7.34;82.01
75051;BME280;63628;47.656;11.310;2023-11-21T10:13:03;94430.53;;;7.60;80.65
75051;BME280;63628;47.656;11.310;2023-11-21T10:15:34;94431.91;;;7.81;79.55
75051;BME280;63628;47.656;11.310;2023-11-21T10:18:02;94425.22;;;7.79;78.80
75051;BME280;63628;47.656;11.310;2023-11-21T10:20:31;94432.34;;;7.78;79.75
75051;BME280;63628;47.656;11.310;2023-11-21T10:22:57;94434.81;;;7.91;81.27
75051;BME280;63628;47.656;11.310;2023-11-21T10:25:24;94431.25;;;7.38;80.38
75051;BME280;63628;47.656;11.310;2023-11-21T10:27:57;94431.41;;;7.73;81.41
75051;BME280;63628;47.656;11.310;2023-11-21T10:30:32;94429.72;;;8.20;78.45
75051;BME280;63628;47.656;11.310;2023-11-21T10:32:59;94426.28;;;8.31;77.95
75051;BME280;63628;47.656;11.310;2023-11-21T10:35:39;94427.91;;;8.32;77.57
75051;BME280;63628;47.656;11.310;2023-11-21T10:38:06;94426.28;;;8.31;77.87
75051;BME280;63628;47.656;11.310;2023-11-21T10:40:37;94432.19;;;7.43;81.27
75051;BME280;63628;47.656;11.310;2023-11-21T10:43:07;94432.56;;;7.77;81.93
75051;BME280;63628;47.656;11.310;2023-11-21T10:45:37;94428.88;;;7.78;81.24
75051;BME280;63628;47.656;11.310;2023-11-21T10:48:05;94431.25;;;7.68;80.33
75051;BME280;63628;47.656;11.310;2023-11-21T10:50:33;94429.25;;;8.11;78.83
75051;BME280;63628;47.656;11.310;2023-11-21T10:53:02;94438.06;;;8.05;79.12
75051;BME280;63628;47.656;11.310;2023-11-21T10:55:31;94431.56;;;7.59;79.70
75051;BME280;63628;47.656;11.310;2023-11-21T10:57:59;94429.69;;;7.78;79.33
75051;BME280;63628;47.656;11.310;2023-11-21T11:00:28;94442.81;;;7.67;79.22
75051;BME280;63628;47.656;11.310;2023-11-21T11:02:55;94437.66;;;7.90;80.03
75051;BME280;63628;47.656;11.310;2023-11-21T11:05:23;94440.31;;;7.90;77.65
75051;BME280;63628;47.656;11.310;2023-11-21T11:07:51;94438.03;;;7.93;77.42
75051;BME280;63628;47.656;11.310;2023-11-21T11:10:26;94438.19;;;8.10;77.89
75051;BME280;63628;47.656;11.310;2023-11-21T11:12:54;94427.63;;;8.10;77.29
75051;BME280;63628;47.656;11.310;2023-11-21T11:15:21;94428.72;;;7.61;79.68
75051;BME280;63628;47.656;11.310;2023-11-21T11:17:50;94429.81;;;7.23;80.28
75051;BME280;63628;47.656;11.310;2023-11-21T11:20:17;94427.38;;;7.70;80.62
75051;BME280;63628;47.656;11.310;2023-11-21T11:22:50;94424.44;;;8.20;78.62
75051;BME280;63628;47.656;11.310;2023-11-21T11:25:38;94422.13;;;8.12;78.10
75051;BME280;63628;47.656;11.310;2023-11-21T11:28:15;94423.13;;;7.69;77.99
75051;BME280;63628;47.656;11.310;2023-11-21T11:30:55;94423.38;;;7.98;79.56
75051;BME280;63628;47.656;11.310;2023-11-21T11:33:33;94416.53;;;8.20;78.77
75051;BME280;63628;47.656;11.310;2023-11-21T11:36:06;94419.66;;;8.28;77.88
75051;BME280;63628;47.656;11.310;2023-11-21T11:38:34;94408.53;;;8.26;78.00
75051;BME280;63628;47.656;11.310;2023-11-21T11:41:03;94413.13;;;8.31;77.78
75051;BME280;63628;47.656;11.310;2023-11-21T11:43:31;94414.09;;;8.07;77.90
75051;BME280;63628;47.656;11.310;2023-11-21T11:46:03;94419.47;;;8.00;77.37
75051;BME280;63628;47.656;11.310;2023-11-21T11:48:37;94413.88;;;8.08;78.28
75051;BME280;63628;47.656;11.310;2023-11-21T11:51:07;94410.91;;;8.05;77.18
75051;BME280;63628;47.656;11.310;2023-11-21T11:53:37;94421.09;;;8.13;78.10
75051;BME280;63628;47.656;11.310;2023-11-21T11:56:28;94420.19;;;8.19;78.65
75051;BME280;63628;47.656;11.310;2023-11-21T11:58:58;94418.63;;;8.30;78.19
75051;BME280;63628;47.656;11.310;2023-11-21T12:01:26;94417.81;;;8.29;77.74
75051;BME280;63628;47.656;11.310;2023-11-21T12:04:24;94416.44;;;8.26;77.66
75051;BME280;63628;47.656;11.310;2023-11-21T12:07:00;94420.69;;;8.27;78.51
75051;BME280;63628;47.656;11.310;2023-11-21T12:09:29;94430.16;;;8.17;78.32
75051;BME280;63628;47.656;11.310;2023-11-21T12:11:58;94431.94;;;8.35;78.34
75051;BME280;63628;47.656;11.310;2023-11-21T12:14:25;94423.81;;;8.36;78.15
75051;BME280;63628;47.656;11.310;2023-11-21T12:16:52;94419.00;;;8.33;78.21
75051;BME280;63628;47.656;11.310;2023-11-21T12:19:19;94421.06;;;8.43;78.76
75051;BME280;63628;47.656;11.310;2023-11-21T12:21:48;94432.00;;;8.46;78.58
75051;BME280;63628;47.656;11.310;2023-11-21T12:24:16;94420.50;;;8.41;78.93
75051;BME280;63628;47.656;11.310;2023-11-21T12:26:43;94429.94;;;8.48;78.92
75051;BME280;63628;47.656;11.310;2023-11-21T12:29:11;94429.13;;;8.48;78.70
75051;BME280;63628;47.656;11.310;2023-11-21T12:31:37;94431.53;;;8.49;79.44
75051;BME280;63628;47.656;11.310;2023-11-21T12:34:04;94431.31;;;8.51;79.15
75051;BME280;63628;47.656;11.310;2023-11-21T12:36:33;94435.53;;;8.52;79.33
75051;BME280;63628;47.656;11.310;2023-11-21T12:39:03;94430.03;;;8.53;78.98
75051;BME280;63628;47.656;11.310;2023-11-21T12:41:30;94432.34;;;8.50;79.58
75051;BME280;63628;47.656;11.310;2023-11-21T12:43:57;94434.25;;;8.43;78.34
75051;BME280;63628;47.656;11.310;2023-11-21T12:46:24;94433.94;;;8.51;79.44
75051;BME280;63628;47.656;11.310;2023-11-21T12:48:54;94425.09;;;8.45;78.73
75051;BME280;63628;47.656;11.310;2023-11-21T12:51:22;94434.97;;;8.50;78.89
75051;BME280;63628;47.656;11.310;2023-11-21T12:53:49;94435.31;;;8.53;79.44
75051;BME280;63628;47.656;11.310;2023-11-21T12:56:21;94423.16;;;8.52;79.29
75051;BME280;63628;47.656;11.310;2023-11-21T12:58:49;94433.47;;;8.54;79.83
75051;BME280;63628;47.656;11.310;2023-11-21T13:01:19;94433.25;;;8.55;79.39
75051;BME280;63628;47.656;11.310;2023-11-21T13:03:48;94433.25;;;8.55;79.41
75051;BME280;63628;47.656;11.310;2023-11-21T13:06:18;94431.88;;;8.53;79.23